Time;durP1;ratioP1;P1;durP2;ratioP2;P2;SDS_P1;SDS_P2;PMS_P1;PMS_P2;Temp;Humidity;BMP_temperature;BMP_pressure;BME280_temperature;BME280_humidity;BME280_pressure;Samples;Min_cycle;Max_cycle;Signal;HPM_P1;HPM_P2
2021/11/23 00:02:14;;;;;;;4.85;3.25;;;5.00;63.70;;;;;;5047307;28;20024;-78
2021/11/23 00:04:40;;;;;;;2.97;2.67;;;5.00;63.90;;;;;;5048513;28;20509;-78
2021/11/23 00:07:06;;;;;;;6.05;3.58;;;5.00;63.60;;;;;;5052930;28;20021;-78
2021/11/23 00:09:31;;;;;;;5.47;2.95;;;5.00;63.70;;;;;;5049981;28;20493;-77
2021/11/23 00:11:57;;;;;;;6.90;2.75;;;4.90;64.00;;;;;;5054618;28;20049;-78
2021/11/23 00:14:23;;;;;;;5.45;2.63;;;4.80;64.20;;;;;;5053724;28;20041;-78
2021/11/23 00:16:48;;;;;;;5.28;3.00;;;4.80;64.20;;;;;;5049778;28;20495;-78
2021/11/23 00:19:14;;;;;;;4.65;3.03;;;4.80;64.30;;;;;;5035227;28;20041;-78
2021/11/23 00:21:40;;;;;;;5.15;3.08;;;4.80;64.20;;;;;;5037399;28;20029;-78
2021/11/23 00:24:06;;;;;;;6.05;2.80;;;4.80;64.30;;;;;;5045431;28;20503;-78
2021/11/23 00:26:32;;;;;;;4.63;3.13;;;4.80;64.50;;;;;;5034242;28;20087;-78
2021/11/23 00:29:15;;;;;;;5.85;3.08;;;4.70;64.70;;;;;;5047856;28;20029;-78
2021/11/23 00:31:41;;;;;;;4.25;2.83;;;4.70;64.90;;;;;;5052727;28;20513;-78
2021/11/23 00:34:07;;;;;;;5.35;3.30;;;4.70;64.80;;;;;;5051041;28;20131;-78
2021/11/23 00:36:32;;;;;;;4.15;2.40;;;4.60;65.10;;;;;;5053207;28;20086;-78
2021/11/23 00:38:58;;;;;;;4.28;2.95;;;4.70;65.10;;;;;;5054680;28;20098;-78
2021/11/23 00:41:24;;;;;;;5.68;2.45;;;4.70;65.00;;;;;;5051000;28;20487;-78
2021/11/23 00:43:50;;;;;;;6.15;2.88;;;4.70;65.00;;;;;;5054046;28;20398;-78
2021/11/23 00:46:17;;;;;;;5.20;3.15;;;4.60;65.30;;;;;;5048634;28;20025;-78
2021/11/23 00:48:43;;;;;;;3.00;2.70;;;4.50;65.60;;;;;;5053577;28;20533;-78
2021/11/23 00:51:09;;;;;;;5.20;2.72;;;4.60;65.70;;;;;;5047158;28;20065;-78
2021/11/23 00:53:35;;;;;;;3.67;2.88;;;4.60;65.50;;;;;;5049695;28;20039;-78
2021/11/23 00:56:02;;;;;;;4.97;2.92;;;4.50;65.90;;;;;;5053666;28;20021;-78
2021/11/23 00:58:28;;;;;;;3.72;2.50;;;4.40;66.10;;;;;;5049776;28;20075;-78
2021/11/23 01:00:54;;;;;;;3.25;2.50;;;4.50;66.30;;;;;;5051801;28;20021;-78
2021/11/23 01:03:19;;;;;;;3.83;2.80;;;4.50;66.30;;;;;;5039255;28;20037;-78
2021/11/23 01:05:46;;;;;;;6.15;2.80;;;4.50;66.30;;;;;;5049182;28;20028;-78
2021/11/23 01:08:13;;;;;;;4.63;3.17;;;4.50;66.40;;;;;;5052965;28;20124;-78
2021/11/23 01:10:39;;;;;;;8.63;3.28;;;4.50;66.50;;;;;;5050946;28;20021;-78
2021/11/23 01:13:05;;;;;;;6.38;2.97;;;4.50;67.00;;;;;;5048726;28;20132;-78
2021/11/23 01:15:31;;;;;;;4.38;3.00;;;4.30;67.30;;;;;;5034614;28;20067;-78
2021/11/23 01:17:56;;;;;;;7.15;3.03;;;4.40;67.40;;;;;;5049087;28;20085;-78
2021/11/23 01:20:23;;;;;;;7.22;2.78;;;4.50;67.50;;;;;;5055265;28;20096;-78
2021/11/23 01:22:49;;;;;;;4.63;3.25;;;4.50;67.30;;;;;;5049911;28;20052;-78
2021/11/23 01:25:15;;;;;;;5.72;3.75;;;4.50;67.30;;;;;;5055202;28;20052;-78
2021/11/23 01:27:41;;;;;;;5.18;3.35;;;4.50;67.60;;;;;;5036518;28;20083;-78
2021/11/23 01:30:10;;;;;;;5.72;3.25;;;4.50;67.50;;;;;;5047272;28;20623;-78
2021/11/23 01:32:36;;;;;;;5.78;2.85;;;4.50;67.60;;;;;;5054618;28;20082;-78
2021/11/23 01:35:02;;;;;;;7.45;3.53;;;4.60;67.40;;;;;;5048335;28;20033;-78
2021/11/23 01:37:28;;;;;;;4.97;3.03;;;4.50;67.80;;;;;;5054083;28;20013;-77
2021/11/23 01:39:53;;;;;;;5.97;3.17;;;4.50;67.90;;;;;;5053662;28;20090;-77
2021/11/23 01:42:19;;;;;;;5.88;3.72;;;4.30;68.70;;;;;;5043074;28;20082;-79
2021/11/23 01:44:45;;;;;;;5.25;3.00;;;4.40;68.20;;;;;;5039980;28;20032;-78
2021/11/23 01:47:11;;;;;;;6.47;3.92;;;4.40;68.20;;;;;;5054253;28;20029;-78
2021/11/23 01:49:36;;;;;;;13.63;4.57;;;4.40;68.40;;;;;;5051517;28;20096;-78
2021/11/23 01:52:02;;;;;;;12.68;3.92;;;4.50;68.30;;;;;;5040206;28;20581;-78
2021/11/23 01:54:31;;;;;;;7.88;3.47;;;4.50;68.30;;;;;;5054022;28;20091;-78
2021/11/23 01:56:58;;;;;;;8.07;4.13;;;4.50;68.30;;;;;;5057369;28;20483;-78
2021/11/23 01:59:24;;;;;;;9.25;3.78;;;4.40;68.70;;;;;;5042309;28;20035;-78
2021/11/23 02:01:50;;;;;;;8.15;3.70;;;4.40;68.70;;;;;;5056236;28;20048;-78
2021/11/23 02:04:16;;;;;;;8.20;3.67;;;4.40;68.60;;;;;;5040722;28;20033;-78
2021/11/23 02:06:41;;;;;;;5.50;3.08;;;4.50;68.60;;;;;;5053796;28;20025;-78
2021/11/23 02:09:07;;;;;;;6.28;3.10;;;4.40;68.80;;;;;;5055978;28;20566;-79
2021/11/23 02:11:36;;;;;;;7.07;3.40;;;4.40;68.90;;;;;;5053593;28;20554;-78
2021/11/23 02:14:03;;;;;;;6.63;3.90;;;4.30;69.30;;;;;;5036709;28;20483;-78
2021/11/23 02:16:30;;;;;;;9.73;3.85;;;4.30;69.20;;;;;;5040690;28;20036;-78
2021/11/23 02:18:56;;;;;;;4.28;3.15;;;4.40;69.10;;;;;;5053550;28;20029;-78
2021/11/23 02:21:22;;;;;;;8.80;3.88;;;4.40;69.20;;;;;;5057176;28;20017;-78
2021/11/23 02:23:49;;;;;;;6.72;3.40;;;4.30;69.40;;;;;;5051078;28;20045;-78
2021/11/23 02:26:15;;;;;;;4.97;3.90;;;4.30;69.70;;;;;;5056671;28;20025;-78
2021/11/23 02:28:41;;;;;;;8.88;3.80;;;4.20;69.80;;;;;;5056862;28;20032;-78
2021/11/23 02:31:08;;;;;;;9.80;3.72;;;4.20;70.00;;;;;;5043498;28;20032;-78
2021/11/23 02:33:35;;;;;;;8.75;3.78;;;4.20;70.10;;;;;;5036849;28;20380;-78
2021/11/23 02:36:04;;;;;;;4.72;3.03;;;4.20;69.90;;;;;;5039526;28;20021;-78
2021/11/23 02:38:32;;;;;;;8.40;3.47;;;4.30;69.60;;;;;;5056728;28;20017;-78
2021/11/23 02:40:59;;;;;;;5.93;3.35;;;4.20;69.90;;;;;;5051816;28;20021;-78
2021/11/23 02:43:25;;;;;;;7.78;4.35;;;4.20;69.80;;;;;;5051585;28;20025;-78
2021/11/23 02:46:09;;;;;;;4.45;3.15;;;4.20;69.70;;;;;;5068844;28;20013;-78
2021/11/23 02:48:35;;;;;;;5.70;3.22;;;4.20;69.80;;;;;;5054747;28;20422;-78
2021/11/23 02:51:20;;;;;;;8.13;4.13;;;4.20;69.60;;;;;;5056317;28;20025;-78
2021/11/23 02:53:49;;;;;;;7.07;3.42;;;4.20;69.70;;;;;;5049158;28;20048;-78
2021/11/23 02:56:16;;;;;;;6.75;3.78;;;4.20;70.10;;;;;;5056338;28;20048;-79
2021/11/23 02:58:50;;;;;;;7.97;4.32;;;4.20;70.30;;;;;;5055998;28;20215;-78
2021/11/23 03:01:25;;;;;;;5.05;3.58;;;4.20;70.00;;;;;;5042892;28;20033;-78
2021/11/23 03:03:51;;;;;;;6.25;3.45;;;4.20;70.10;;;;;;5036345;28;20119;-78
2021/11/23 03:06:18;;;;;;;7.60;4.07;;;4.20;70.00;;;;;;5038053;28;20544;-78
2021/11/23 03:08:48;;;;;;;7.25;3.47;;;4.10;70.30;;;;;;5055995;28;20025;-78
2021/11/23 03:11:16;;;;;;;6.57;3.92;;;4.10;70.40;;;;;;5055552;28;20407;-78
2021/11/23 03:13:42;;;;;;;6.50;3.50;;;4.00;70.70;;;;;;5047493;28;20111;-78
2021/11/23 03:16:08;;;;;;;5.88;4.30;;;4.00;70.80;;;;;;5036256;28;20026;-78
2021/11/23 03:18:34;;;;;;;7.43;3.70;;;3.90;71.00;;;;;;5038731;28;20112;-77
2021/11/23 03:21:00;;;;;;;5.72;4.10;;;3.80;71.20;;;;;;5055704;28;20028;-78
2021/11/23 03:23:26;;;;;;;9.45;4.57;;;3.90;71.40;;;;;;5055575;28;20052;-78
2021/11/23 03:25:52;;;;;;;8.73;4.70;;;3.90;71.10;;;;;;5052202;28;20487;-78
2021/11/23 03:28:18;;;;;;;6.18;4.13;;;3.90;71.30;;;;;;5036083;28;20036;-78
2021/11/23 03:30:44;;;;;;;6.55;4.32;;;3.90;71.20;;;;;;5041191;28;20055;-78
2021/11/23 03:33:10;;;;;;;8.98;5.03;;;3.90;71.30;;;;;;5055590;28;20040;-78
2021/11/23 03:35:41;;;;;;;6.50;4.78;;;3.90;71.10;;;;;;5053600;28;20025;-79
2021/11/23 03:38:09;;;;;;;12.27;5.32;;;3.90;71.30;;;;;;5048881;28;20056;-78
2021/11/23 03:40:38;;;;;;;5.55;4.25;;;3.90;71.30;;;;;;5041937;28;20469;-78
2021/11/23 03:43:04;;;;;;;9.35;4.97;;;3.90;71.30;;;;;;5049716;28;20040;-78
2021/11/23 03:45:31;;;;;;;6.97;4.05;;;3.80;71.40;;;;;;5055063;28;20620;-78
2021/11/23 03:48:14;;;;;;;12.55;5.05;;;3.80;71.40;;;;;;5055392;28;20094;-78
2021/11/23 03:50:40;;;;;;;11.60;4.25;;;3.80;71.60;;;;;;5050622;28;20027;-78
2021/11/23 03:53:06;;;;;;;10.82;5.03;;;3.70;72.10;;;;;;5055193;28;20107;-78
2021/11/23 03:55:34;;;;;;;9.73;5.18;;;3.60;72.30;;;;;;5045392;28;20036;-78
2021/11/23 03:58:01;;;;;;;9.15;4.57;;;3.60;72.50;;;;;;5035409;28;20392;-78
2021/11/23 04:00:27;;;;;;;7.30;4.97;;;3.60;72.60;;;;;;5035130;28;20030;-78
2021/11/23 04:02:54;;;;;;;9.40;4.88;;;3.50;72.70;;;;;;5049551;28;20368;-79
2021/11/23 04:05:23;;;;;;;8.35;4.97;;;3.60;72.70;;;;;;5054139;28;20025;-78
2021/11/23 04:07:49;;;;;;;9.75;5.57;;;3.50;72.90;;;;;;5050175;28;20784;-78
2021/11/23 04:10:18;;;;;;;9.57;5.32;;;3.50;72.80;;;;;;5048046;28;20018;-78
2021/11/23 04:12:46;;;;;;;9.68;5.13;;;3.50;72.40;;;;;;5034089;28;20025;-78
2021/11/23 04:15:11;;;;;;;11.05;5.60;;;3.50;72.90;;;;;;5052926;28;20021;-78
2021/11/23 04:17:37;;;;;;;11.40;6.20;;;3.40;73.00;;;;;;5054823;28;20032;-78
2021/11/23 04:20:04;;;;;;;10.00;5.53;;;3.50;72.70;;;;;;5047760;28;20064;-78
2021/11/23 04:22:33;;;;;;;7.32;5.10;;;3.40;72.80;;;;;;5054305;28;20502;-78
2021/11/23 04:24:59;;;;;;;15.80;7.32;;;3.40;73.20;;;;;;5052261;28;20033;-77
2021/11/23 04:27:27;;;;;;;9.80;5.75;;;3.40;73.20;;;;;;5054402;28;20805;-78
2021/11/23 04:29:52;;;;;;;10.57;5.90;;;3.40;73.30;;;;;;5054606;28;20115;-78
2021/11/23 04:32:18;;;;;;;8.50;5.70;;;3.40;73.10;;;;;;5050755;28;20092;-78
2021/11/23 04:34:44;;;;;;;13.32;6.53;;;3.40;73.50;;;;;;5055501;28;20033;-78
2021/11/23 04:37:09;;;;;;;9.75;5.32;;;3.40;73.60;;;;;;5052018;28;20037;-78
2021/11/23 04:39:39;;;;;;;15.43;6.05;;;3.40;73.60;;;;;;5052043;28;20040;-78
2021/11/23 04:42:04;;;;;;;10.60;5.95;;;3.30;73.60;;;;;;5053115;28;20029;-78
2021/11/23 04:44:30;;;;;;;11.65;5.97;;;3.40;73.60;;;;;;5052251;28;20021;-78
2021/11/23 04:46:56;;;;;;;10.25;5.72;;;3.30;74.00;;;;;;5052319;28;20039;-78
2021/11/23 04:49:22;;;;;;;12.30;5.90;;;3.30;73.80;;;;;;5033283;28;20013;-78
2021/11/23 04:51:48;;;;;;;11.60;6.78;;;3.30;73.90;;;;;;5052160;28;20502;-78
2021/11/23 04:54:14;;;;;;;15.80;5.75;;;3.30;73.90;;;;;;5054777;28;20035;-78
2021/11/23 04:56:43;;;;;;;10.52;5.90;;;3.20;73.80;;;;;;5041857;28;20039;-78
2021/11/23 04:59:09;;;;;;;9.18;5.63;;;3.30;73.90;;;;;;5054366;28;20029;-78
2021/11/23 05:01:34;;;;;;;10.57;6.22;;;3.30;73.70;;;;;;5049690;28;20033;-78
2021/11/23 05:04:00;;;;;;;15.90;6.32;;;3.30;73.70;;;;;;5053107;28;20509;-78
2021/11/23 05:06:26;;;;;;;11.32;6.00;;;3.30;73.80;;;;;;5043461;28;20033;-78
2021/11/23 05:08:51;;;;;;;9.80;5.95;;;3.20;73.70;;;;;;5041769;28;20013;-78
2021/11/23 05:11:18;;;;;;;10.25;6.43;;;3.20;74.00;;;;;;5053254;28;20025;-78
2021/11/23 05:13:43;;;;;;;10.27;6.50;;;3.20;73.80;;;;;;5033528;28;20033;-78
2021/11/23 05:16:09;;;;;;;11.68;6.85;;;3.20;73.80;;;;;;5051240;28;20037;-78
2021/11/23 05:18:35;;;;;;;14.05;6.88;;;3.20;73.90;;;;;;5052003;28;20029;-79
2021/11/23 05:21:00;;;;;;;10.32;6.28;;;3.10;73.70;;;;;;5041072;28;20025;-75
2021/11/23 05:23:26;;;;;;;10.43;5.88;;;3.10;73.80;;;;;;5057575;28;20040;-76
2021/11/23 05:25:54;;;;;;;12.25;7.40;;;3.10;73.80;;;;;;5057963;28;20071;-76
2021/11/23 05:28:20;;;;;;;11.20;6.85;;;3.10;73.80;;;;;;5054790;28;20032;-78
2021/11/23 05:30:52;;;;;;;11.95;6.68;;;3.10;73.80;;;;;;5057253;28;20466;-78
2021/11/23 05:33:18;;;;;;;10.13;5.63;;;3.10;73.80;;;;;;5052886;28;20106;-78
2021/11/23 05:35:49;;;;;;;13.35;6.53;;;3.00;73.40;;;;;;5057840;28;20036;-78
2021/11/23 05:38:14;;;;;;;;;;;3.00;73.70;;;;;;5046089;28;20028;-78
2021/11/23 05:40:41;;;;;;;10.63;6.15;;;2.90;73.40;;;;;;5055669;28;19909;-77
2021/11/23 06:13:44;;;;;;;7.80;5.80;;;0.80;80.10;;;;;;5068892;28;20531;-88
2021/11/23 06:16:15;;;;;;;12.05;5.68;;;0.90;80.70;;;;;;5071124;28;20758;-88
2021/11/23 06:18:41;;;;;;;7.72;4.97;;;1.20;80.80;;;;;;5067025;28;20093;-83
2021/11/23 06:21:08;;;;;;;9.30;5.50;;;1.50;80.20;;;;;;5067683;28;20581;-86
2021/11/23 06:23:35;;;;;;;10.07;5.93;;;1.90;79.10;;;;;;5070616;28;20027;-81
2021/11/23 06:26:02;;;;;;;9.13;5.75;;;2.20;77.90;;;;;;5065740;28;20483;-78
2021/11/23 06:28:28;;;;;;;9.68;6.45;;;2.40;77.00;;;;;;5050539;28;20104;-77
2021/11/23 06:30:54;;;;;;;10.45;6.38;;;2.60;76.30;;;;;;5051263;28;20025;-77
2021/11/23 06:33:23;;;;;;;13.10;7.00;;;2.70;75.70;;;;;;5051000;28;20028;-77
2021/11/23 06:35:49;;;;;;;9.27;6.13;;;2.80;75.20;;;;;;5059056;28;20027;-77
2021/11/23 06:38:15;;;;;;;15.25;7.10;;;2.80;74.80;;;;;;5071024;28;20025;-77
2021/11/23 06:40:41;;;;;;;14.77;6.88;;;2.90;74.70;;;;;;5070405;28;20091;-81
2021/11/23 06:43:08;;;;;;;17.02;6.35;;;2.80;74.50;;;;;;5059235;28;20036;-80
2021/11/23 06:45:36;;;;;;;15.75;7.10;;;2.80;74.40;;;;;;5081385;28;20043;-80
2021/11/23 06:48:02;;;;;;;10.50;6.47;;;2.80;74.30;;;;;;5088679;28;20409;-80
2021/11/23 06:50:35;;;;;;;12.80;7.15;;;2.80;74.10;;;;;;5049797;28;20037;-80
2021/11/23 06:53:04;;;;;;;10.80;5.85;;;2.70;74.10;;;;;;5059124;28;20048;-80
2021/11/23 06:55:30;;;;;;;16.92;6.82;;;2.70;74.30;;;;;;5051426;28;20488;-79
2021/11/23 06:57:57;;;;;;;8.65;6.85;;;2.70;74.30;;;;;;5051760;28;20029;-79
2021/11/23 07:00:23;;;;;;;9.10;6.50;;;2.60;74.40;;;;;;5051673;28;20064;-79
2021/11/23 07:02:49;;;;;;;10.63;6.07;;;2.60;74.50;;;;;;5051359;28;20013;-79
2021/11/23 07:05:14;;;;;;;11.38;6.55;;;2.60;74.50;;;;;;5051413;28;20032;-79
2021/11/23 07:07:40;;;;;;;9.20;5.43;;;2.60;74.40;;;;;;5050842;28;20032;-79
2021/11/23 07:10:07;;;;;;;8.35;5.75;;;2.60;74.10;;;;;;5069773;28;20418;-79
2021/11/23 07:12:33;;;;;;;7.15;5.45;;;2.60;74.20;;;;;;5069750;28;20047;-79
2021/11/23 07:14:59;;;;;;;6.60;5.53;;;2.70;73.90;;;;;;5054586;28;20083;-79
2021/11/23 07:17:24;;;;;;;9.55;5.68;;;2.70;73.70;;;;;;5054892;28;20017;-80
2021/11/23 07:19:50;;;;;;;9.18;5.00;;;2.70;73.60;;;;;;5070976;28;20071;-79
2021/11/23 07:22:17;;;;;;;14.07;6.05;;;2.70;73.10;;;;;;5070819;28;20814;-80
2021/11/23 07:24:45;;;;;;;12.43;7.60;;;2.80;73.00;;;;;;5058503;28;20082;-79
2021/11/23 07:27:11;;;;;;;11.40;7.20;;;2.80;73.10;;;;;;5047482;28;20034;-78
2021/11/23 07:29:37;;;;;;;11.93;7.22;;;2.80;72.90;;;;;;5037791;28;20060;-80
2021/11/23 07:32:03;;;;;;;9.57;6.53;;;2.80;72.90;;;;;;5037672;28;20021;-80
2021/11/23 07:34:29;;;;;;;15.52;6.70;;;2.80;73.00;;;;;;5037248;28;20022;-80
2021/11/23 07:36:55;;;;;;;6.90;5.03;;;2.80;72.70;;;;;;5037621;28;20029;-80
2021/11/23 07:39:21;;;;;;;8.02;5.28;;;2.80;72.60;;;;;;5037703;28;20033;-80
2021/11/23 07:41:47;;;;;;;7.90;5.07;;;2.80;72.60;;;;;;5037223;28;20029;-80
2021/11/23 07:44:12;;;;;;;8.55;5.43;;;2.80;72.90;;;;;;5043980;28;20376;-80
2021/11/23 07:46:38;;;;;;;6.38;4.90;;;2.80;72.80;;;;;;5075224;28;20425;-80
2021/11/23 07:49:04;;;;;;;6.10;4.72;;;2.80;72.60;;;;;;5077422;28;20036;-80
2021/11/23 07:51:31;;;;;;;5.85;4.25;;;2.80;72.70;;;;;;5050869;28;20057;-79
2021/11/23 07:53:56;;;;;;;9.88;5.15;;;2.80;72.80;;;;;;5036079;28;20029;-79
2021/11/23 07:56:22;;;;;;;6.25;4.55;;;2.80;72.80;;;;;;5037464;28;20032;-79
2021/11/23 07:58:48;;;;;;;6.18;4.72;;;2.90;72.50;;;;;;5036148;28;20037;-79
2021/11/23 08:01:13;;;;;;;5.93;4.63;;;3.00;72.00;;;;;;5036980;28;20068;-80
2021/11/23 08:03:40;;;;;;;5.95;4.53;;;3.00;71.80;;;;;;5037348;28;20084;-79
2021/11/23 08:06:07;;;;;;;5.60;4.25;;;3.20;71.80;;;;;;5036908;28;20049;-80
2021/11/23 08:08:33;;;;;;;4.70;4.00;;;3.20;71.10;;;;;;5036886;28;20377;-80
2021/11/23 08:11:00;;;;;;;6.45;3.05;;;3.30;70.70;;;;;;5037133;28;20236;-80
2021/11/23 08:13:26;;;;;;;4.20;3.83;;;3.50;70.10;;;;;;5036792;28;20084;-79
2021/11/23 08:15:52;;;;;;;9.50;3.97;;;3.60;70.20;;;;;;5036709;28;20025;-80
2021/11/23 08:18:18;;;;;;;6.38;3.33;;;3.60;70.00;;;;;;5036724;28;20112;-80
2021/11/23 08:20:45;;;;;;;5.00;3.17;;;3.70;69.20;;;;;;5036980;28;20026;-80
2021/11/23 08:23:10;;;;;;;6.13;3.42;;;3.80;68.80;;;;;;5035529;28;20497;-80
2021/11/23 08:25:39;;;;;;;3.22;2.20;;;3.90;67.90;;;;;;5036618;28;20056;-79
2021/11/23 08:28:06;;;;;;;5.05;3.10;;;4.00;67.30;;;;;;5056727;28;20024;-79
2021/11/23 08:30:32;;;;;;;10.00;2.45;;;4.10;67.40;;;;;;5056498;28;20055;-79
2021/11/23 08:32:58;;;;;;;3.63;2.53;;;4.20;66.70;;;;;;5056232;28;20021;-80
2021/11/23 08:35:24;;;;;;;3.65;2.42;;;4.20;66.20;;;;;;5053372;28;20025;-79
2021/11/23 08:37:50;;;;;;;5.30;3.45;;;4.30;66.10;;;;;;5054945;28;20028;-80
2021/11/23 08:40:16;;;;;;;4.60;2.70;;;4.40;66.20;;;;;;5056313;28;20391;-79
2021/11/23 08:42:45;;;;;;;3.70;3.13;;;4.50;65.50;;;;;;5055138;28;20027;-79
2021/11/23 08:45:12;;;;;;;4.05;2.92;;;4.60;65.40;;;;;;5062058;28;20082;-81
2021/11/23 08:47:38;;;;;;;7.38;3.20;;;4.60;65.60;;;;;;5076315;28;20519;-79
2021/11/23 08:50:06;;;;;;;4.50;2.38;;;4.60;65.60;;;;;;5072024;28;20039;-79
2021/11/23 08:52:32;;;;;;;7.07;4.50;;;4.70;64.60;;;;;;5035543;28;20101;-79
2021/11/23 08:54:58;;;;;;;3.67;2.95;;;4.70;65.30;;;;;;5036318;28;20075;-79
2021/11/23 08:57:24;;;;;;;3.17;2.47;;;4.80;64.50;;;;;;5035846;28;20073;-79
2021/11/23 08:59:51;;;;;;;5.78;3.03;;;4.90;63.80;;;;;;5036146;28;20095;-79
2021/11/23 09:02:18;;;;;;;7.15;4.38;;;5.20;63.20;;;;;;5036199;28;20157;-79
2021/11/23 09:04:43;;;;;;;5.30;3.40;;;5.80;60.90;;;;;;5042989;28;20036;-79
2021/11/23 09:07:13;;;;;;;6.20;3.90;;;6.50;57.90;;;;;;5054614;28;20036;-79
2021/11/23 09:09:42;;;;;;;14.65;8.98;;;7.10;56.40;;;;;;5055841;28;20025;-79
2021/11/23 09:12:09;;;;;;;5.63;4.10;;;7.60;55.30;;;;;;5045375;28;20140;-79
2021/11/23 09:14:36;;;;;;;10.50;9.73;;;8.30;53.30;;;;;;5035842;28;20034;-79
2021/11/23 09:17:05;;;;;;;10.55;9.95;;;8.80;50.30;;;;;;5035789;28;20036;-79
2021/11/23 09:19:32;;;;;;;13.33;12.73;;;9.50;48.40;;;;;;5035637;28;20018;-79
2021/11/23 09:21:57;;;;;;;21.52;20.52;;;10.10;46.50;;;;;;5054685;28;20051;-79
2021/11/23 09:24:23;;;;;;;1999.90;999.90;;;10.30;45.30;;;;;;5053576;28;20029;-79
2021/11/23 09:26:51;;;;;;;1999.90;999.90;;;10.40;45.70;;;;;;5046655;28;21016;-79
2021/11/23 09:29:17;;;;;;;24.42;23.10;;;10.10;45.30;;;;;;5053610;28;20074;-80
2021/11/23 09:31:43;;;;;;;6.25;5.25;;;9.90;46.00;;;;;;5035565;28;20030;-79
2021/11/23 09:34:10;;;;;;;6.55;3.15;;;9.80;46.00;;;;;;5035344;28;20028;-80
2021/11/23 09:36:37;;;;;;;5.93;3.35;;;9.20;47.50;;;;;;5050883;28;20032;-79
2021/11/23 09:39:03;;;;;;;2.53;1.65;;;8.60;49.20;;;;;;5035292;28;20032;-79
2021/11/23 09:41:31;;;;;;;10.02;5.28;;;8.10;50.30;;;;;;5035245;28;20025;-79
2021/11/23 09:43:57;;;;;;;10.68;5.72;;;7.70;52.00;;;;;;5037081;28;20021;-79
2021/11/23 09:46:22;;;;;;;8.55;4.50;;;7.50;52.00;;;;;;5068439;28;20027;-79
2021/11/23 09:48:48;;;;;;;11.20;4.93;;;7.40;52.30;;;;;;5060697;28;20459;-79
2021/11/23 09:51:24;;;;;;;8.52;3.97;;;7.30;53.00;;;;;;5035248;28;20029;-79
2021/11/23 09:53:50;;;;;;;6.22;2.78;;;7.30;52.40;;;;;;5035117;28;20594;-79
2021/11/23 09:56:16;;;;;;;4.75;2.42;;;7.20;52.10;;;;;;5035350;28;20013;-79
2021/11/23 09:58:41;;;;;;;7.57;3.53;;;7.20;52.70;;;;;;5034674;28;20041;-79
2021/11/23 10:01:09;;;;;;;4.90;3.08;;;7.20;52.90;;;;;;5050512;28;20049;-79
2021/11/23 10:03:36;;;;;;;6.53;3.17;;;7.20;52.90;;;;;;5035002;28;20518;-79
2021/11/23 10:06:07;;;;;;;6.18;3.42;;;7.30;53.70;;;;;;5033986;28;20116;-79
2021/11/23 10:08:34;;;;;;;4.78;2.88;;;7.30;52.80;;;;;;5034899;28;20030;-79
2021/11/23 10:10:59;;;;;;;11.95;5.18;;;7.30;52.90;;;;;;5034922;28;20021;-79
2021/11/23 10:13:46;;;;;;;9.40;4.63;;;7.30;52.50;;;;;;5035009;28;20076;-79
2021/11/23 10:16:13;;;;;;;17.48;7.25;;;7.40;53.20;;;;;;5034418;28;20028;-79
2021/11/23 10:18:40;;;;;;;13.48;5.30;;;7.50;52.90;;;;;;5050249;28;20044;-79
2021/11/23 10:21:08;;;;;;;6.25;2.97;;;7.50;52.90;;;;;;5034873;28;20070;-79
2021/11/23 10:23:42;;;;;;;15.15;5.93;;;7.50;52.00;;;;;;5050019;28;20044;-79
2021/11/23 10:26:17;;;;;;;6.90;3.08;;;7.60;52.40;;;;;;5039110;28;20036;-79
2021/11/23 10:28:48;;;;;;;7.18;2.92;;;7.70;51.50;;;;;;5054868;28;20021;-79
2021/11/23 10:31:14;;;;;;;4.43;2.05;;;7.70;51.00;;;;;;5054783;28;20047;-79
2021/11/23 10:33:42;;;;;;;8.75;4.35;;;7.70;51.50;;;;;;5052088;28;20025;-79
2021/11/23 10:36:10;;;;;;;7.65;3.55;;;7.70;52.50;;;;;;5053125;28;20423;-79
2021/11/23 10:38:37;;;;;;;4.10;2.45;;;7.80;51.20;;;;;;5050747;28;20049;-80
2021/11/23 10:41:12;;;;;;;4.38;2.38;;;7.80;50.80;;;;;;5035028;28;20082;-79
2021/11/23 10:43:39;;;;;;;6.13;2.50;;;7.90;50.60;;;;;;5042919;28;20057;-79
2021/11/23 10:46:14;;;;;;;7.07;3.35;;;7.90;51.00;;;;;;5064004;28;20033;-79
2021/11/23 10:48:40;;;;;;;8.30;3.92;;;8.00;50.10;;;;;;5074687;28;20027;-80
2021/11/23 10:51:11;;;;;;;6.00;2.92;;;8.10;50.20;;;;;;5072988;28;20421;-79
2021/11/23 10:53:42;;;;;;;3.10;2.47;;;8.10;50.70;;;;;;5074728;28;20033;-79
2021/11/23 10:56:13;;;;;;;6.05;2.83;;;8.20;50.00;;;;;;5035071;28;20033;-80
2021/11/23 10:58:41;;;;;;;8.50;3.80;;;8.20;50.70;;;;;;5034222;28;20031;-80
2021/11/23 11:01:09;;;;;;;10.25;3.85;;;8.30;50.20;;;;;;5042651;28;20033;-80
2021/11/23 11:03:36;;;;;;;5.40;3.20;;;8.30;49.60;;;;;;5056847;28;20120;-79
2021/11/23 11:06:03;;;;;;;5.95;3.53;;;8.30;49.20;;;;;;5058177;28;20075;-79
2021/11/23 11:08:35;;;;;;;4.78;2.30;;;8.30;49.20;;;;;;5058200;28;20108;-80
2021/11/23 11:11:02;;;;;;;3.92;2.25;;;8.40;48.60;;;;;;5035598;28;20476;-79
2021/11/23 11:13:29;;;;;;;6.07;3.40;;;8.50;48.80;;;;;;5037928;28;20041;-79
2021/11/23 11:15:57;;;;;;;6.25;2.58;;;8.50;48.40;;;;;;5036917;28;20037;-80
2021/11/23 11:18:24;;;;;;;7.95;4.22;;;8.60;48.50;;;;;;5052478;28;20028;-79
2021/11/23 11:21:02;;;;;;;11.23;4.38;;;8.60;48.50;;;;;;5039503;28;20517;-79
2021/11/23 11:23:34;;;;;;;7.78;4.00;;;8.60;48.50;;;;;;5044160;28;20021;-79
2021/11/23 11:26:28;;;;;;;7.78;4.18;;;8.70;47.90;;;;;;5038122;28;20028;-79
2021/11/23 11:28:58;;;;;;;7.85;4.22;;;8.60;47.00;;;;;;5037829;28;20026;-79
2021/11/23 11:31:30;;;;;;;;;;;8.70;46.80;;;;;;5036865;28;20032;-79
2021/11/23 11:34:21;;;;;;;10.80;3.13;;;8.70;46.80;;;;;;5037651;28;19910;-79
2021/11/23 11:36:47;;;;;;;4.70;2.58;;;8.70;46.60;;;;;;5056074;28;20024;-79
2021/11/23 11:39:38;;;;;;;4.80;1.92;;;8.80;46.80;;;;;;5056673;28;20021;-79
2021/11/23 11:42:09;;;;;;;2.80;1.50;;;8.80;46.80;;;;;;5038477;28;20057;-79
2021/11/23 11:44:46;;;;;;;3.83;2.00;;;8.90;46.80;;;;;;5053702;28;20096;-80
2021/11/23 11:47:16;;;;;;;3.33;1.23;;;8.90;46.20;;;;;;5037702;28;20490;-79
2021/11/23 11:50:07;;;;;;;2.72;1.73;;;9.00;46.20;;;;;;5037400;28;20029;-79
2021/11/23 11:53:01;;;;;;;4.05;1.80;;;9.10;46.40;;;;;;5036095;28;20037;-79
2021/11/23 11:55:29;;;;;;;3.88;2.00;;;9.10;46.70;;;;;;5037490;28;20029;-79
2021/11/23 11:58:00;;;;;;;5.57;2.10;;;9.10;45.50;;;;;;5035931;28;20492;-79
2021/11/23 12:00:33;;;;;;;2.30;1.70;;;9.20;45.40;;;;;;5036181;28;20128;-79
2021/11/23 12:03:24;;;;;;;2.20;1.52;;;9.20;45.80;;;;;;5037321;28;20043;-79
2021/11/23 12:05:50;;;;;;;2.00;1.17;;;9.30;45.40;;;;;;5036495;28;20526;-79
2021/11/23 12:08:23;;;;;;;4.80;1.90;;;9.30;45.10;;;;;;5037317;28;20392;-79
2021/11/23 12:10:50;;;;;;;4.15;1.98;;;9.40;45.40;;;;;;5037166;28;20026;-78
2021/11/23 12:13:53;;;;;;;5.22;2.10;;;9.50;45.30;;;;;;5042991;28;20515;-79
2021/11/23 12:16:43;;;;;;;3.40;2.05;;;9.50;45.20;;;;;;5036343;28;20033;-79
2021/11/23 12:19:24;;;;;;;4.45;1.80;;;9.50;45.00;;;;;;5036933;28;20495;-79
2021/11/23 12:22:02;;;;;;;3.15;1.70;;;9.60;44.60;;;;;;5036654;28;20096;-79
2021/11/23 12:24:30;;;;;;;4.95;2.05;;;9.60;44.50;;;;;;5036794;28;20017;-79
2021/11/23 12:27:06;;;;;;;4.40;1.83;;;9.70;45.00;;;;;;5036836;28;20036;-79
2021/11/23 12:29:32;;;;;;;2.60;1.60;;;9.70;44.60;;;;;;5040981;28;20025;-79
2021/11/23 12:31:59;;;;;;;2.97;1.23;;;9.70;44.70;;;;;;5037016;28;20033;-79
2021/11/23 12:34:24;;;;;;;1.60;1.33;;;9.70;43.70;;;;;;5051289;28;20061;-79
2021/11/23 12:36:56;;;;;;;2.78;1.35;;;9.70;43.40;;;;;;5036459;28;20056;-79
2021/11/23 12:39:37;;;;;;;4.85;1.30;;;9.70;43.80;;;;;;5036608;28;20450;-79
2021/11/23 12:42:09;;;;;;;2.22;1.42;;;9.80;44.40;;;;;;5051441;28;20021;-79
2021/11/23 12:44:37;;;;;;;2.38;1.20;;;9.70;43.40;;;;;;5055703;28;20131;-79
2021/11/23 12:47:11;;;;;;;3.17;1.35;;;9.80;43.70;;;;;;5076268;28;20103;-79
2021/11/23 12:49:38;;;;;;;3.03;1.30;;;9.80;43.40;;;;;;5061567;28;20060;-79
2021/11/23 12:52:07;;;;;;;2.60;2.13;;;9.90;43.90;;;;;;5051784;28;20036;-79
2021/11/23 12:54:37;;;;;;;2.72;1.50;;;10.00;44.30;;;;;;5051881;28;20550;-79
2021/11/23 12:57:05;;;;;;;5.15;1.90;;;10.00;43.90;;;;;;5036225;28;20032;-79
2021/11/23 12:59:31;;;;;;;3.47;1.58;;;10.00;43.30;;;;;;5035937;28;20495;-79
2021/11/23 13:02:00;;;;;;;4.70;1.90;;;10.00;43.20;;;;;;5034811;28;20079;-79
2021/11/23 13:04:42;;;;;;;7.10;2.25;;;10.00;43.70;;;;;;5036050;28;20051;-79
2021/11/23 13:07:09;;;;;;;3.40;1.80;;;10.00;44.10;;;;;;5035925;28;20033;-79
2021/11/23 13:09:54;;;;;;;2.45;1.40;;;10.00;44.00;;;;;;5036318;28;20048;-79
2021/11/23 13:12:27;;;;;;;5.60;1.58;;;10.00;43.30;;;;;;5046120;28;20048;-79
2021/11/23 13:15:01;;;;;;;2.95;1.33;;;10.00;43.40;;;;;;5054429;28;20029;-79
2021/11/23 13:17:51;;;;;;;2.45;1.25;;;10.10;43.80;;;;;;5050168;28;20030;-79
2021/11/23 13:20:26;;;;;;;3.40;1.27;;;10.10;43.80;;;;;;5036007;28;20037;-79
2021/11/23 13:22:57;;;;;;;1.88;1.10;;;10.10;44.20;;;;;;5035110;28;20392;-79
2021/11/23 13:25:26;;;;;;;1.67;1.27;;;10.10;44.00;;;;;;5035863;28;20037;-79
2021/11/23 13:27:53;;;;;;;2.53;1.75;;;10.20;44.70;;;;;;5035860;28;20025;-79
2021/11/23 13:30:51;;;;;;;4.63;1.10;;;10.20;44.40;;;;;;5035458;28;20395;-78
2021/11/23 13:33:29;;;;;;;1.52;1.00;;;10.10;44.00;;;;;;5035517;28;20037;-79